Time;durP1;ratioP1;P1;durP2;ratioP2;P2;SDS_P1;SDS_P2;PMS_P1;PMS_P2;Temp;Humidity;BMP_temperature;BMP_pressure;BME280_temperature;BME280_humidity;BME280_pressure;Samples;Min_cycle;Max_cycle;Signal;HPM_P1;HPM_P2
2023/01/19 00:02:17;;;;;;;10.25;3.60;;;;;;;-2.28;100.00;99630.44;4825631;29;20030;-94
2023/01/19 00:04:42;;;;;;;6.38;3.25;;;;;;;-2.25;100.00;99627.84;4825595;29;20508;-95
2023/01/19 00:07:08;;;;;;;5.03;3.30;;;;;;;-2.12;100.00;99630.16;4825522;29;20496;-94
2023/01/19 00:09:37;;;;;;;9.65;3.60;;;;;;;-1.93;100.00;99651.72;4825801;29;20053;-95
2023/01/19 00:12:03;;;;;;;9.35;3.20;;;;;;;-2.03;100.00;99619.88;4825566;29;20122;-95
2023/01/19 00:14:28;;;;;;;6.53;3.17;;;;;;;-1.83;100.00;99627.94;4825577;29;20033;-93
2023/01/19 00:16:54;;;;;;;5.05;3.28;;;;;;;-2.03;100.00;99607.25;4825316;29;20030;-95
2023/01/19 00:19:20;;;;;;;8.73;3.35;;;;;;;-1.91;100.00;99622.16;4825490;29;20485;-95
2023/01/19 00:21:45;;;;;;;18.42;3.85;;;;;;;-2.13;100.00;99593.94;4825180;29;20034;-95
2023/01/19 00:24:12;;;;;;;5.03;3.08;;;;;;;-1.93;100.00;99634.00;4825577;29;20018;-95
2023/01/19 00:26:39;;;;;;;7.88;3.00;;;;;;;-2.12;100.00;99632.69;4825045;29;20030;-94
2023/01/19 00:29:06;;;;;;;6.05;3.20;;;;;;;-2.26;100.00;99638.00;4827157;29;20030;-95
2023/01/19 00:31:32;;;;;;;13.30;3.75;;;;;;;-2.43;100.00;99629.03;4828738;29;20112;-95
2023/01/19 00:33:58;;;;;;;6.45;3.17;;;;;;;-2.46;100.00;99649.31;4844003;29;20065;-94
2023/01/19 00:36:24;;;;;;;6.32;3.13;;;;;;;-2.64;100.00;99640.31;4828217;29;20064;-94
2023/01/19 00:38:50;;;;;;;5.32;3.03;;;;;;;-2.70;100.00;99632.84;4843796;29;20034;-95
2023/01/19 00:41:16;;;;;;;3.92;3.15;;;;;;;-3.00;100.00;99603.84;4828503;29;20037;-95
2023/01/19 00:43:42;;;;;;;8.95;4.47;;;;;;;-2.89;100.00;99637.34;4847171;29;20044;-95
2023/01/19 00:46:08;;;;;;;7.28;3.10;;;;;;;-3.11;100.00;99616.66;4861955;29;20120;-94
2023/01/19 00:48:33;;;;;;;6.95;3.00;;;;;;;-3.01;100.00;99623.22;4862092;29;20495;-95
2023/01/19 00:50:59;;;;;;;6.40;2.95;;;;;;;-3.20;100.00;99616.78;4861893;29;20034;-94
2023/01/19 00:53:25;;;;;;;9.52;4.35;;;;;;;-2.94;100.00;99643.34;4861974;29;20170;-94
2023/01/19 00:55:50;;;;;;;6.65;4.20;;;;;;;-3.08;100.00;99606.50;4862153;29;20036;-95
2023/01/19 00:58:16;;;;;;;6.57;4.00;;;;;;;-3.25;100.00;99613.50;4861830;29;20029;-95
2023/01/19 01:00:42;;;;;;;8.52;3.67;;;;;;;-3.38;100.00;99606.97;4861841;29;20067;-95
2023/01/19 01:03:08;;;;;;;12.57;5.45;;;;;;;-3.36;100.00;99625.44;4862022;29;20053;-95
2023/01/19 01:05:34;;;;;;;11.02;3.97;;;;;;;-3.46;100.00;99600.34;4862700;29;20037;-94
2023/01/19 01:07:59;;;;;;;4.93;3.67;;;;;;;-3.35;100.00;99622.88;4861989;29;20033;-94
2023/01/19 01:10:27;;;;;;;6.78;3.97;;;;;;;-3.18;100.00;99645.38;4862238;29;20029;-94
2023/01/19 01:12:53;;;;;;;8.88;4.65;;;;;;;-3.08;100.00;99641.84;4862200;29;20033;-94
2023/01/19 01:15:20;;;;;;;10.23;4.85;;;;;;;-3.04;100.00;99630.84;4861711;29;20033;-94
2023/01/19 01:17:46;;;;;;;8.20;4.75;;;;;;;-3.16;100.00;99620.13;4861587;29;20397;-94
2023/01/19 01:20:15;;;;;;;13.35;4.82;;;;;;;-2.97;100.00;99638.34;4861486;29;20034;-94
2023/01/19 01:22:44;;;;;;;7.40;4.97;;;;;;;-3.24;100.00;99610.13;4892542;29;20029;-94
2023/01/19 01:25:11;;;;;;;9.23;4.20;;;;;;;-3.18;100.00;99627.69;4861516;29;20053;-94
2023/01/19 01:27:37;;;;;;;7.63;4.63;;;;;;;-3.37;100.00;99617.03;4861103;29;20344;-95
2023/01/19 01:30:04;;;;;;;6.55;4.00;;;;;;;-3.32;100.00;99627.06;4861277;29;20266;-95
2023/01/19 01:32:29;;;;;;;7.05;4.15;;;;;;;-3.24;100.00;99632.84;4861347;29;20106;-94
2023/01/19 01:34:55;;;;;;;14.07;4.60;;;;;;;-3.01;100.00;99628.28;4861359;29;20129;-94
2023/01/19 01:37:20;;;;;;;6.90;4.32;;;;;;;-3.03;100.00;99624.94;4861152;29;20029;-94
2023/01/19 01:39:46;;;;;;;8.18;4.72;;;;;;;-3.13;100.00;99583.03;4860835;29;20053;-94
2023/01/19 01:42:19;;;;;;;15.20;4.97;;;;;;;-2.90;100.00;99635.72;4861063;29;20030;-94
2023/01/19 01:44:57;;;;;;;8.18;4.28;;;;;;;-2.92;100.00;99634.88;4861206;29;20189;-94
2023/01/19 01:47:43;;;;;;;8.57;4.93;;;;;;;-3.01;100.00;99633.31;4861050;29;20392;-95
2023/01/19 01:50:22;;;;;;;13.65;6.38;;;;;;;-3.06;100.00;99640.13;4860966;29;20049;-94
2023/01/19 01:52:56;;;;;;;11.85;6.28;;;;;;;-3.10;100.00;99647.78;4860955;29;20034;-95
2023/01/19 01:55:23;;;;;;;11.65;6.70;;;;;;;-3.40;100.00;99624.63;4861029;29;20030;-94
2023/01/19 01:57:53;;;;;;;10.90;6.03;;;;;;;-3.51;100.00;99616.38;4860896;29;20516;-95
2023/01/19 02:00:19;;;;;;;9.63;6.55;;;;;;;-3.45;100.00;99633.97;4860981;29;20511;-95
2023/01/19 02:02:51;;;;;;;11.13;6.28;;;;;;;-3.39;100.00;99636.41;4860656;29;20029;-94
2023/01/19 02:05:28;;;;;;;14.65;5.60;;;;;;;-3.17;100.00;99652.09;4860759;29;20520;-94
2023/01/19 02:13:42;;;;;;;6.95;5.40;;;;;;;-3.42;100.00;99670.94;4861944;29;20238;-94
2023/01/19 02:16:09;;;;;;;8.80;4.43;;;;;;;-3.59;100.00;99636.66;4860455;29;20035;-94
2023/01/19 02:18:36;;;;;;;10.48;6.03;;;;;;;-3.61;100.00;99637.53;4860377;29;20068;-94
2023/01/19 02:21:14;;;;;;;11.23;5.85;;;;;;;-3.51;100.00;99636.56;4860738;29;20052;-94
2023/01/19 02:23:44;;;;;;;8.73;5.40;;;;;;;-3.36;100.00;99668.34;4860403;29;20134;-94
2023/01/19 02:26:14;;;;;;;8.50;5.53;;;;;;;-3.42;100.00;99665.88;4860530;29;20030;-94
2023/01/19 02:28:44;;;;;;;6.45;4.43;;;;;;;-3.62;100.00;99654.34;4860573;29;20092;-95
2023/01/19 02:31:10;;;;;;;10.27;4.68;;;;;;;-3.75;100.00;99647.81;4860572;29;20038;-94
2023/01/19 02:33:36;;;;;;;8.15;4.60;;;;;;;-3.73;100.00;99661.19;4860254;29;20084;-94
2023/01/19 02:36:02;;;;;;;6.63;4.15;;;;;;;-3.84;100.00;99652.94;4860084;29;20022;-94
2023/01/19 02:38:29;;;;;;;8.48;4.80;;;;;;;-3.84;100.00;99658.00;4859981;29;20484;-94
2023/01/19 02:40:58;;;;;;;6.82;4.57;;;;;;;-3.85;100.00;99656.31;4860077;29;20029;-95
2023/01/19 02:43:24;;;;;;;7.10;4.63;;;;;;;-3.80;100.00;99654.56;4860138;29;20560;-94
2023/01/19 02:45:50;;;;;;;10.80;5.20;;;;;;;-3.66;100.00;99672.88;4860179;29;20038;-94
2023/01/19 02:48:19;;;;;;;9.57;5.10;;;;;;;-3.86;100.00;99655.47;4859995;29;20036;-95
2023/01/19 02:50:50;;;;;;;6.65;5.00;;;;;;;-3.82;100.00;99641.16;4859812;29;20503;-94
2023/01/19 02:53:33;;;;;;;11.48;5.55;;;;;;;-3.67;100.00;99671.22;4859342;29;20040;-94
2023/01/19 02:56:17;;;;;;;8.10;5.40;;;;;;;-3.72;100.00;99662.91;4890670;29;20125;-94
2023/01/19 02:59:01;;;;;;;9.45;5.35;;;;;;;-3.54;100.00;99682.81;4890825;29;20029;-94
2023/01/19 03:02:04;;;;;;;9.30;5.00;;;;;;;-3.71;100.00;99674.63;4859902;29;20034;-94
2023/01/19 03:04:50;;;;;;;8.18;3.85;;;;;;;-3.81;100.00;99653.72;4859924;29;20476;-94
2023/01/19 03:07:30;;;;;;;7.40;4.25;;;;;;;-3.90;100.00;99638.75;4859481;29;20030;-95
2023/01/19 03:10:10;;;;;;;8.77;5.28;;;;;;;-3.73;100.00;99658.69;4859762;29;20033;-94
2023/01/19 03:12:44;;;;;;;7.47;4.75;;;;;;;-3.91;100.00;99632.00;4859617;29;20029;-94
2023/01/19 03:15:18;;;;;;;8.32;5.85;;;;;;;-3.82;100.00;99646.22;4859719;29;20039;-95
2023/01/19 03:17:47;;;;;;;9.30;5.55;;;;;;;-3.59;100.00;99668.63;4859532;29;20057;-94
2023/01/19 03:20:17;;;;;;;15.45;6.97;;;;;;;-3.62;100.00;99621.56;4859469;29;20306;-93
2023/01/19 03:22:45;;;;;;;13.30;6.78;;;;;;;-3.29;100.00;99627.88;4859627;29;20036;-96
2023/01/19 03:25:14;;;;;;;9.50;6.28;;;;;;;-3.50;100.00;99628.97;4859596;29;20052;-94
2023/01/19 03:27:43;;;;;;;9.10;4.90;;;;;;;-3.44;100.00;99645.72;4859072;29;20029;-95
2023/01/19 03:30:17;;;;;;;7.97;5.22;;;;;;;-3.58;100.00;99635.81;4884846;29;20052;-95
2023/01/19 03:32:48;;;;;;;12.93;5.97;;;;;;;-3.57;100.00;99642.53;4877781;29;20029;-95
2023/01/19 03:35:17;;;;;;;15.57;6.68;;;;;;;-3.67;100.00;99623.31;4909427;29;20029;-94
2023/01/19 03:37:46;;;;;;;11.93;5.20;;;;;;;-3.64;100.00;99620.75;4878105;29;20111;-95
2023/01/19 03:40:12;;;;;;;9.77;5.03;;;;;;;-3.67;100.00;99620.81;4877959;29;20059;-95
2023/01/19 03:42:39;;;;;;;8.02;4.93;;;;;;;-3.74;100.00;99614.16;4878032;29;20064;-95
2023/01/19 03:45:06;;;;;;;8.38;4.53;;;;;;;-3.52;100.00;99634.91;4878664;29;20021;-95
2023/01/19 03:47:32;;;;;;;7.72;4.10;;;;;;;-3.62;100.00;99618.22;4909907;29;20025;-95
2023/01/19 03:50:02;;;;;;;8.20;3.85;;;;;;;-3.43;100.00;99631.44;4909892;29;20144;-96
2023/01/19 03:52:31;;;;;;;8.43;3.90;;;;;;;-3.51;100.00;99637.41;4878763;29;20056;-94
2023/01/19 03:54:56;;;;;;;6.75;3.42;;;;;;;-3.59;100.00;99625.75;4910092;29;20115;-95
2023/01/19 03:57:22;;;;;;;11.73;4.45;;;;;;;-3.50;100.00;99628.97;4878910;29;20575;-96
2023/01/19 03:59:48;;;;;;;10.15;4.70;;;;;;;-3.40;100.00;99633.91;4909914;29;20040;-94
2023/01/19 04:02:14;;;;;;;10.82;5.07;;;;;;;-3.45;100.00;99636.47;4910249;29;20036;-95
2023/01/19 04:04:39;;;;;;;7.75;4.03;;;;;;;-3.72;100.00;99602.38;4913358;29;20120;-94
2023/01/19 04:07:05;;;;;;;12.00;4.88;;;;;;;-3.67;100.00;99626.66;4882276;29;20088;-95
2023/01/19 04:09:31;;;;;;;8.38;4.60;;;;;;;-3.71;100.00;99629.25;4914453;29;20025;-94
2023/01/19 04:11:57;;;;;;;12.02;4.90;;;;;;;-3.87;100.00;99609.28;4882778;29;20021;-95
2023/01/19 04:14:22;;;;;;;8.98;3.97;;;;;;;-3.65;100.00;99624.13;4914071;29;20032;-95
2023/01/19 04:16:48;;;;;;;5.88;3.45;;;;;;;-3.69;100.00;99612.41;4913386;29;20138;-95
2023/01/19 04:19:13;;;;;;;6.65;3.95;;;;;;;-3.82;100.00;99598.31;4882377;29;20025;-95
2023/01/19 04:21:39;;;;;;;7.03;3.63;;;;;;;-3.66;100.00;99618.28;4882744;29;20089;-95
2023/01/19 04:24:05;;;;;;;6.88;3.65;;;;;;;-3.81;100.00;99593.22;4882614;29;20029;-95
2023/01/19 04:26:30;;;;;;;8.90;3.40;;;;;;;-3.66;100.00;99618.28;4882258;29;20025;-95
2023/01/19 04:28:57;;;;;;;7.15;4.10;;;;;;;-3.63;100.00;99617.41;4882542;29;20060;-95
2023/01/19 04:31:22;;;;;;;6.90;3.70;;;;;;;-3.75;100.00;99608.28;4913875;29;20507;-96
2023/01/19 04:33:48;;;;;;;10.77;3.90;;;;;;;-3.74;100.00;99611.63;4882715;29;20037;-95
2023/01/19 04:36:14;;;;;;;6.53;3.92;;;;;;;-3.76;100.00;99615.88;4882370;29;20025;-95
2023/01/19 04:38:39;;;;;;;5.80;3.72;;;;;;;-3.59;100.00;99613.97;4881905;29;20120;-95
2023/01/19 04:41:05;;;;;;;7.22;3.50;;;;;;;-3.73;100.00;99595.66;4881851;29;20029;-95
2023/01/19 04:43:30;;;;;;;9.85;3.42;;;;;;;-3.71;100.00;99607.38;4882247;29;20040;-94
2023/01/19 04:45:56;;;;;;;8.13;3.28;;;;;;;-3.54;100.00;99612.19;4882057;29;20111;-94
2023/01/19 04:48:21;;;;;;;8.30;3.95;;;;;;;-3.56;100.00;99596.28;4881772;29;20124;-95
2023/01/19 04:50:49;;;;;;;5.95;3.85;;;;;;;-3.59;100.00;99588.72;4881974;29;20037;-95
2023/01/19 04:53:15;;;;;;;8.95;3.58;;;;;;;-3.45;100.00;99618.81;4882620;29;20029;-95
2023/01/19 04:55:40;;;;;;;13.35;3.85;;;;;;;-3.45;100.00;99609.56;4881988;29;20025;-96
2023/01/19 04:58:06;;;;;;;8.48;3.90;;;;;;;-3.61;100.00;99577.84;4881857;29;20033;-95
2023/01/19 05:00:32;;;;;;;7.75;3.65;;;;;;;-3.26;100.00;99619.41;4881927;29;20037;-94
2023/01/19 05:02:58;;;;;;;11.18;3.95;;;;;;;-3.52;100.00;99575.19;4881942;29;20029;-96
2023/01/19 05:05:23;;;;;;;6.68;3.63;;;;;;;-3.39;100.00;99602.75;4881827;29;20400;-94
2023/01/19 05:07:49;;;;;;;11.73;4.03;;;;;;;-3.56;100.00;99573.59;4881666;29;20033;-96
2023/01/19 05:10:15;;;;;;;8.73;3.50;;;;;;;-3.52;100.00;99585.28;4881661;29;20036;-96
2023/01/19 05:12:41;;;;;;;10.02;4.25;;;;;;;-3.52;100.00;99570.16;4882061;29;20025;-95
2023/01/19 05:15:08;;;;;;;8.27;3.78;;;;;;;-3.39;100.00;99580.06;4880674;29;20040;-94
2023/01/19 05:17:34;;;;;;;7.10;3.97;;;;;;;-3.10;100.00;99613.25;4912881;29;20484;-95
2023/01/19 05:19:59;;;;;;;6.25;3.70;;;;;;;-3.38;100.00;99569.13;4881648;29;20037;-95
2023/01/19 05:22:25;;;;;;;7.13;3.90;;;;;;;-3.33;100.00;99587.56;4912830;29;20025;-95
2023/01/19 05:24:50;;;;;;;8.68;3.67;;;;;;;-3.29;100.00;99596.72;4912559;29;20025;-95
2023/01/19 05:27:16;;;;;;;8.65;3.50;;;;;;;-3.26;100.00;99591.66;4881626;29;20033;-95
2023/01/19 05:29:41;;;;;;;5.40;2.92;;;;;;;-3.35;100.00;99584.22;4881346;29;20040;-96
2023/01/19 05:32:07;;;;;;;6.22;3.20;;;;;;;-3.30;100.00;99582.44;4881393;29;20033;-96
2023/01/19 05:34:32;;;;;;;8.73;3.30;;;;;;;-3.12;100.00;99607.44;4881636;29;20029;-96
2023/01/19 05:36:58;;;;;;;4.55;3.25;;;;;;;-3.41;100.00;99572.53;4881750;29;20029;-95
2023/01/19 05:39:25;;;;;;;4.30;2.95;;;;;;;-3.25;100.00;99600.88;4881571;29;20057;-95
2023/01/19 05:41:51;;;;;;;5.40;3.58;;;;;;;-3.53;100.00;99558.41;4881831;29;20119;-95
2023/01/19 05:44:17;;;;;;;7.15;4.00;;;;;;;-3.43;100.00;99571.72;4881526;29;20033;-95
2023/01/19 05:46:42;;;;;;;8.70;4.57;;;;;;;-3.27;100.00;99570.63;4881482;29;20029;-95
2023/01/19 05:49:08;;;;;;;10.07;4.18;;;;;;;-3.20;100.00;99561.25;4912824;29;20064;-96
2023/01/19 05:51:37;;;;;;;5.75;3.70;;;;;;;-3.10;100.00;99567.84;4881793;29;20032;-95
2023/01/19 05:54:06;;;;;;;6.03;3.45;;;;;;;-3.06;100.00;99579.56;4881997;29;20029;-95
2023/01/19 05:56:32;;;;;;;7.28;3.38;;;;;;;-3.17;100.00;99566.28;4882156;29;20069;-96
2023/01/19 05:58:59;;;;;;;6.03;3.20;;;;;;;-3.14;100.00;99581.38;4881718;29;20069;-95
2023/01/19 06:01:25;;;;;;;8.52;3.60;;;;;;;-3.27;100.00;99562.22;4881817;29;20035;-95
2023/01/19 06:03:51;;;;;;;15.05;3.85;;;;;;;-3.35;100.00;99562.34;4881840;29;20383;-95
2023/01/19 06:06:17;;;;;;;10.38;3.70;;;;;;;-3.24;100.00;99579.84;4881155;29;20033;-96
2023/01/19 06:08:43;;;;;;;5.65;3.40;;;;;;;-3.26;100.00;99566.44;4881188;29;20052;-96
2023/01/19 06:11:09;;;;;;;5.63;2.97;;;;;;;-3.21;100.00;99574.75;4881729;29;20057;-95
2023/01/19 06:13:35;;;;;;;12.80;3.60;;;;;;;-3.11;100.00;99583.03;4881608;29;20033;-95
2023/01/19 06:16:01;;;;;;;9.45;2.80;;;;;;;-3.15;100.00;99567.06;4882010;29;20559;-95
2023/01/19 06:18:27;;;;;;;9.50;2.92;;;;;;;-3.20;100.00;99547.81;4881533;29;20483;-95
2023/01/19 06:20:58;;;;;;;8.77;2.10;;;;;;;-3.15;100.00;99549.41;4882019;29;20048;-95
2023/01/19 06:23:25;;;;;;;5.22;2.45;;;;;;;-2.85;100.00;99567.47;4881130;29;20025;-95
2023/01/19 06:25:51;;;;;;;9.30;2.65;;;;;;;-2.78;100.00;99541.22;4881182;29;20029;-95
2023/01/19 06:28:17;;;;;;;7.88;2.30;;;;;;;-2.65;100.00;99564.59;4882267;29;20349;-96
2023/01/19 06:30:47;;;;;;;10.25;2.60;;;;;;;-2.73;100.00;99552.09;4881961;29;20033;-96
2023/01/19 06:33:13;;;;;;;8.57;2.35;;;;;;;-2.89;100.00;99533.00;4882677;29;20054;-95
2023/01/19 06:35:42;;;;;;;4.18;2.25;;;;;;;-2.81;100.00;99548.84;4881127;29;20033;-95
2023/01/19 06:38:07;;;;;;;5.97;1.95;;;;;;;-2.87;100.00;99559.91;4881407;29;20036;-96
2023/01/19 06:40:33;;;;;;;7.97;1.98;;;;;;;-2.86;100.00;99548.09;4881182;29;20037;-94
2023/01/19 06:42:59;;;;;;;6.60;1.60;;;;;;;-2.77;100.00;99580.78;4881062;29;20101;-94
2023/01/19 06:45:24;;;;;;;9.52;2.00;;;;;;;-3.02;100.00;99550.88;4881608;29;20032;-95
2023/01/19 06:47:50;;;;;;;4.10;1.77;;;;;;;-3.05;100.00;99550.94;4912644;29;20381;-96
2023/01/19 06:50:15;;;;;;;7.57;1.80;;;;;;;-2.96;100.00;99566.78;4881656;29;20036;-96
2023/01/19 06:52:41;;;;;;;8.05;1.60;;;;;;;-2.98;100.00;99560.94;4880883;29;20120;-95
2023/01/19 06:55:10;;;;;;;5.25;1.55;;;;;;;-2.95;100.00;99568.44;4881018;29;20040;-96
2023/01/19 06:57:39;;;;;;;4.03;1.75;;;;;;;-3.03;100.00;99568.56;4880746;29;20021;-96
2023/01/19 07:00:08;;;;;;;4.88;1.65;;;;;;;-3.11;100.00;99565.34;4881165;29;20033;-95
2023/01/19 07:02:34;;;;;;;4.10;1.50;;;;;;;-3.22;100.00;99547.84;4881192;29;20029;-95
2023/01/19 07:05:00;;;;;;;6.57;1.80;;;;;;;-3.19;100.00;99564.63;4880841;29;20035;-95
2023/01/19 07:07:26;;;;;;;8.57;1.73;;;;;;;-3.29;100.00;99558.88;4880307;29;20027;-96
2023/01/19 07:09:52;;;;;;;3.88;1.25;;;;;;;-3.33;100.00;99555.59;4880836;29;20124;-94
2023/01/19 07:12:17;;;;;;;2.67;1.30;;;;;;;-3.34;100.00;99563.16;4880665;29;20053;-96
2023/01/19 07:14:43;;;;;;;11.23;3.13;;;;;;;-3.37;100.00;99565.75;4880608;29;20025;-94
2023/01/19 07:17:09;;;;;;;6.10;2.22;;;;;;;-3.32;100.00;99562.28;4880618;29;20212;-96
2023/01/19 07:19:35;;;;;;;4.57;1.73;;;;;;;-3.26;100.00;99579.88;4911818;29;20053;-95
2023/01/19 07:22:02;;;;;;;7.38;2.55;;;;;;;-3.23;100.00;99597.47;4880621;29;20043;-96
2023/01/19 07:24:29;;;;;;;5.13;2.05;;;;;;;-3.46;100.00;99562.50;4880301;29;20029;-96
2023/01/19 07:26:55;;;;;;;3.17;2.03;;;;;;;-3.25;100.00;99601.72;4880640;29;20374;-94
2023/01/19 07:29:21;;;;;;;4.28;2.00;;;;;;;-3.26;100.00;99597.53;4912049;29;20032;-95
2023/01/19 07:31:47;;;;;;;7.60;2.03;;;;;;;-3.47;100.00;99573.44;4880883;29;20029;-95
2023/01/19 07:34:14;;;;;;;3.22;1.80;;;;;;;-3.31;100.00;99584.16;4880549;29;20164;-96
2023/01/19 07:36:39;;;;;;;7.20;2.70;;;;;;;-3.41;100.00;99577.56;4880531;29;20036;-94
2023/01/19 07:39:05;;;;;;;6.90;1.80;;;;;;;-3.40;100.00;99575.88;4882505;29;20036;-95
2023/01/19 07:41:31;;;;;;;6.38;2.08;;;;;;;-3.36;100.00;99583.38;4915933;29;20064;-95
2023/01/19 07:43:56;;;;;;;5.15;1.92;;;;;;;-3.30;100.00;99600.13;4884787;29;20499;-95
2023/01/19 07:46:22;;;;;;;5.45;1.40;;;;;;;-3.46;100.00;99575.13;4884505;29;20033;-96
2023/01/19 07:48:48;;;;;;;2.17;1.30;;;;;;;-3.39;100.00;99580.06;4884326;29;20017;-96
2023/01/19 07:51:17;;;;;;;3.83;1.35;;;;;;;-3.33;100.00;99577.47;4884162;29;20525;-96
2023/01/19 07:53:48;;;;;;;6.78;1.75;;;;;;;-3.24;100.00;99597.53;4884780;29;20044;-96
2023/01/19 07:56:14;;;;;;;8.67;1.80;;;;;;;-3.18;100.00;99610.03;4884407;29;20057;-96
2023/01/19 07:58:39;;;;;;;6.93;1.73;;;;;;;-3.36;100.00;99580.88;4884214;29;20077;-95
2023/01/19 08:01:12;;;;;;;7.90;1.73;;;;;;;-3.27;100.00;99587.44;4884537;29;20032;-95
2023/01/19 08:03:38;;;;;;;8.52;2.80;;;;;;;-3.28;100.00;99588.31;4884783;29;20037;-96
2023/01/19 08:06:04;;;;;;;2.20;1.60;;;;;;;-3.24;100.00;99589.94;4883693;29;20033;-95
2023/01/19 08:08:33;;;;;;;2.75;1.45;;;;;;;-3.13;100.00;99593.13;4883459;29;20029;-95
2023/01/19 08:10:59;;;;;;;7.47;2.13;;;;;;;-3.03;100.00;99614.84;4883570;29;20025;-95
2023/01/19 08:13:25;;;;;;;6.38;2.08;;;;;;;-3.16;100.00;99598.22;4883694;29;20077;-96
2023/01/19 08:15:52;;;;;;;7.53;1.88;;;;;;;-3.12;100.00;99599.84;4883990;29;20068;-95
2023/01/19 08:18:18;;;;;;;11.18;1.73;;;;;;;-3.11;100.00;99601.50;4884469;29;20028;-96
2023/01/19 08:20:44;;;;;;;13.25;2.67;;;;;;;-2.86;100.00;99601.13;4884188;29;20120;-96
2023/01/19 08:23:10;;;;;;;9.35;3.03;;;;;;;-2.69;100.00;99624.41;4883162;29;20085;-95
2023/01/19 08:25:41;;;;;;;11.32;2.60;;;;;;;-2.80;100.00;99601.03;4882960;29;20445;-95
2023/01/19 08:28:08;;;;;;;13.88;4.53;;;;;;;-2.62;100.00;99604.94;4883253;29;20037;-95
2023/01/19 08:30:34;;;;;;;22.42;4.68;;;;;;;-2.62;100.00;99605.78;4883031;29;20060;-95
2023/01/19 08:33:03;;;;;;;17.98;4.60;;;;;;;-2.73;100.00;99600.09;4882995;29;20444;-95
2023/01/19 08:35:34;;;;;;;20.40;6.30;;;;;;;-2.62;100.00;99600.72;4882892;29;20033;-96
2023/01/19 08:38:02;;;;;;;9.90;5.43;;;;;;;-2.53;100.00;99616.59;4882689;29;20044;-95
2023/01/19 08:40:29;;;;;;;17.80;5.85;;;;;;;-2.50;100.00;99624.94;4918956;29;20496;-95
2023/01/19 08:43:02;;;;;;;11.18;4.75;;;;;;;-2.42;100.00;99629.84;4882179;29;20056;-95
2023/01/19 08:45:29;;;;;;;9.68;4.38;;;;;;;-2.37;100.00;99630.59;4882237;29;20036;-96
2023/01/19 08:47:57;;;;;;;12.15;5.57;;;;;;;-2.46;100.00;99610.56;4882743;29;20112;-96
2023/01/19 08:50:24;;;;;;;8.52;4.22;;;;;;;-2.24;100.00;99647.22;4882248;29;20053;-95
2023/01/19 08:52:50;;;;;;;10.15;3.95;;;;;;;-2.45;100.00;99609.69;4881738;29;20029;-95
2023/01/19 08:55:16;;;;;;;10.10;3.83;;;;;;;-2.36;100.00;99629.75;4882199;29;20025;-95
2023/01/19 08:57:42;;;;;;;10.82;3.72;;;;;;;-2.44;100.00;99622.31;4882315;29;20088;-95
2023/01/19 09:00:09;;;;;;;15.85;3.08;;;;;;;-2.32;100.00;99635.59;4882160;29;20036;-95
2023/01/19 09:02:36;;;;;;;12.10;2.47;;;;;;;-2.45;100.00;99623.16;4882029;29;20033;-96
2023/01/19 09:05:03;;;;;;;10.45;2.15;;;;;;;-2.30;100.00;99654.91;4882226;29;20025;-95
2023/01/19 09:07:29;;;;;;;7.95;2.80;;;;;;;-2.41;100.00;99632.38;4882336;29;20117;-95
2023/01/19 09:09:55;;;;;;;8.98;2.92;;;;;;;-2.43;100.00;99620.63;4913176;29;20065;-95
2023/01/19 09:12:20;;;;;;;4.57;2.00;;;;;;;-2.25;100.00;99653.13;4913177;29;20036;-95
2023/01/19 09:14:46;;;;;;;7.75;2.55;;;;;;;-2.38;100.00;99629.78;4881228;29;20562;-95
2023/01/19 09:17:13;;;;;;;7.50;2.38;;;;;;;-2.25;100.00;99635.44;4881868;29;20025;-94
2023/01/19 09:19:39;;;;;;;5.55;2.30;;;;;;;-2.21;100.00;99610.97;4882106;29;20037;-95
2023/01/19 09:22:05;;;;;;;11.48;2.78;;;;;;;-2.08;100.00;99627.53;4881850;29;20039;-96
2023/01/19 09:24:31;;;;;;;6.13;2.60;;;;;;;-1.90;100.00;99651.66;4882023;29;20029;-94
2023/01/19 09:26:56;;;;;;;16.17;2.58;;;;;;;-1.82;100.00;99638.88;4912019;29;20085;-95
2023/01/19 09:29:22;;;;;;;9.75;2.83;;;;;;;-1.72;100.00;99640.34;4881030;29;20044;-95
2023/01/19 09:31:47;;;;;;;8.00;3.00;;;;;;;-1.68;100.00;99628.47;4880822;29;20040;-95
2023/01/19 09:34:13;;;;;;;14.35;3.30;;;;;;;-1.33;100.00;99653.88;4880451;29;20032;-95
2023/01/19 09:36:39;;;;;;;24.45;6.35;;;;;;;-1.21;100.00;99649.41;4912133;29;20029;-96
2023/01/19 09:39:04;;;;;;;18.23;6.28;;;;;;;-1.02;100.00;99648.13;4880266;29;20029;-94
2023/01/19 09:41:34;;;;;;;25.08;6.80;;;;;;;-0.58;100.00;99684.28;4911186;29;20036;-94
2023/01/19 09:43:59;;;;;;;15.70;6.60;;;;;;;-0.53;100.00;99641.06;4879804;29;20040;-95
2023/01/19 09:46:34;;;;;;;19.15;6.80;;;;;;;0.31;100.00;99687.03;4880365;29;20033;-95
2023/01/19 09:49:05;;;;;;;29.02;8.57;;;;;;;0.76;100.00;99673.94;4911127;29;20033;-96
2023/01/19 09:51:42;;;;;;;14.10;8.80;;;;;;;1.36;100.00;99683.97;4879768;29;20029;-96
2023/01/19 09:54:14;;;;;;;28.67;9.30;;;;;;;1.60;100.00;99684.88;4879767;29;20037;-95
2023/01/19 09:56:41;;;;;;;23.23;10.45;;;;;;;1.48;100.00;99663.22;4911303;29;20391;-96
2023/01/19 09:59:27;;;;;;;26.13;10.30;;;;;;;1.58;100.00;99664.56;4911422;29;20032;-95
2023/01/19 10:02:14;;;;;;;32.60;10.32;;;;;;;1.83;100.00;99694.28;4879627;29;20049;-96
2023/01/19 10:05:01;;;;;;;25.10;10.23;;;;;;;1.82;100.00;99672.28;4911426;29;20064;-96
2023/01/19 10:07:43;;;;;;;25.23;10.13;;;;;;;2.19;100.00;99691.38;4910966;29;20033;-96
2023/01/19 10:10:18;;;;;;;22.58;9.27;;;;;;;2.30;100.00;99657.03;4911267;29;20897;-95
2023/01/19 10:13:09;;;;;;;24.90;9.68;;;;;;;2.68;100.00;99664.13;4911044;29;20029;-95
2023/01/19 10:15:44;;;;;;;18.35;8.27;;;;;;;2.38;100.00;99684.75;4910915;29;20029;-96
2023/01/19 10:18:18;;;;;;;15.25;7.75;;;;;;;2.05;100.00;99695.25;4910793;29;20057;-96
2023/01/19 10:20:55;;;;;;;14.73;7.45;;;;;;;1.46;100.00;99677.69;4879535;29;20060;-96
2023/01/19 10:23:48;;;;;;;12.60;6.53;;;;;;;1.37;100.00;99701.72;4879637;29;20441;-95
2023/01/19 10:26:24;;;;;;;28.38;7.60;;;;;;;2.02;100.00;99674.16;4910637;29;20030;-94
2023/01/19 10:28:54;;;;;;;20.25;7.85;;;;;;;3.55;100.00;99704.09;4910845;29;20025;-96
2023/01/19 10:31:23;;;;;;;14.75;7.13;;;;;;;3.79;100.00;99693.78;4879934;29;20036;-95
2023/01/19 10:33:49;;;;;;;14.27;7.75;;;;;;;3.45;100.00;99661.16;4881989;29;20028;-96
2023/01/19 10:36:19;;;;;;;12.93;8.57;;;;;;;3.91;100.00;99705.22;4879246;29;20119;-95
2023/01/19 10:38:46;;;;;;;21.52;9.30;;;;;;;3.86;100.00;99698.56;4879170;29;20472;-95
2023/01/19 10:41:24;;;;;;;21.75;8.18;;;;;;;4.08;100.00;99677.22;4878745;29;20556;-94
2023/01/19 10:43:59;;;;;;;14.13;6.97;;;;;;;4.08;100.00;99677.22;4879153;29;20092;-94
2023/01/19 10:46:46;;;;;;;13.02;7.00;;;;;;;4.48;100.00;99675.47;4878775;29;20081;-94
2023/01/19 10:49:39;;;;;;;12.05;6.32;;;;;;;5.11;100.00;99709.22;4878207;29;20127;-94
2023/01/19 10:52:07;;;;;;;14.63;6.15;;;;;;;5.58;100.00;99701.03;4878630;29;20476;-94
2023/01/19 10:54:36;;;;;;;11.90;5.97;;;;;;;5.64;97.27;99683.72;4878307;29;20032;-94
2023/01/19 10:57:08;;;;;;;21.50;5.80;;;;;;;6.40;93.46;99673.91;4878312;29;20033;-94
2023/01/19 10:59:43;;;;;;;17.48;6.30;;;;;;;8.81;83.34;99703.84;4878330;29;20033;-95
2023/01/19 11:02:18;;;;;;;16.40;5.80;;;;;;;9.36;74.91;99682.34;4909740;29;20035;-95
2023/01/19 11:04:44;;;;;;;24.13;5.10;;;;;;;10.07;71.15;99680.25;4878205;29;20033;-95
2023/01/19 11:07:26;;;;;;;14.07;4.63;;;;;;;9.20;67.93;99707.44;4878060;29;20400;-94
2023/01/19 11:10:25;;;;;;;15.63;5.05;;;;;;;9.52;65.42;99694.22;4909747;29;20025;-95
2023/01/19 11:12:53;;;;;;;12.25;4.25;;;;;;;9.46;66.23;99712.66;4869998;29;20033;-95
2023/01/19 11:15:24;;;;;;;12.88;3.85;;;;;;;9.27;67.36;99708.69;4878134;29;20025;-95
2023/01/19 11:17:51;;;;;;;9.85;3.50;;;;;;;10.19;63.10;99705.25;4909134;29;20029;-95
2023/01/19 11:20:26;;;;;;;13.57;3.25;;;;;;;11.06;57.09;99706.09;4877831;29;20040;-96
2023/01/19 11:23:16;;;;;;;11.70;3.13;;;;;;;11.18;58.40;99693.25;4877920;29;20511;-94
2023/01/19 11:25:46;;;;;;;12.32;3.90;;;;;;;12.76;55.01;99684.00;4909457;29;20029;-94
2023/01/19 11:28:31;;;;;;;10.45;3.35;;;;;;;13.61;49.30;99712.59;4878363;29;20029;-95
2023/01/19 11:31:10;;;;;;;10.18;3.33;;;;;;;13.51;49.30;99706.53;4877732;29;20037;-95
2023/01/19 11:33:46;;;;;;;10.27;2.92;;;;;;;13.18;49.82;99712.63;4909446;29;20028;-94
2023/01/19 11:36:21;;;;;;;14.80;2.92;;;;;;;12.73;50.60;99686.81;4877976;29;20020;-95
2023/01/19 11:38:49;;;;;;;7.25;2.65;;;;;;;12.87;51.01;99702.09;4909303;29;20115;-95